sensor_id;sensor_type;location;lat;lon;timestamp;P1;durP1;ratioP1;P2;durP2;ratioP2
31112;SDS011;17763;48.730;9.136;2023-01-01T14:12:48;8.53;;;2.67;;
31112;SDS011;17763;48.730;9.136;2023-01-01T14:17:56;1.98;;;1.73;;
31112;SDS011;17763;48.730;9.136;2023-01-01T14:20:35;6.25;;;1.92;;
31112;SDS011;17763;48.730;9.136;2023-01-01T14:25:55;5.30;;;2.35;;
31112;SDS011;17763;48.730;9.136;2023-01-01T14:28:23;3.80;;;2.15;;
31112;SDS011;17763;48.730;9.136;2023-01-01T14:30:55;7.32;;;2.72;;
31112;SDS011;17763;48.730;9.136;2023-01-01T14:33:26;4.30;;;2.25;;
31112;SDS011;17763;48.730;9.136;2023-01-01T14:35:53;3.47;;;2.25;;
31112;SDS011;17763;48.730;9.136;2023-01-01T14:41:01;2.35;;;2.15;;
31112;SDS011;17763;48.730;9.136;2023-01-01T14:43:36;3.60;;;2.22;;
31112;SDS011;17763;48.730;9.136;2023-01-01T14:46:04;4.70;;;2.10;;
31112;SDS011;17763;48.730;9.136;2023-01-01T14:48:31;4.30;;;2.20;;
31112;SDS011;17763;48.730;9.136;2023-01-01T14:50:57;8.90;;;4.68;;
31112;SDS011;17763;48.730;9.136;2023-01-01T14:53:27;7.65;;;4.53;;
31112;SDS011;17763;48.730;9.136;2023-01-01T14:55:56;5.00;;;4.50;;
31112;SDS011;17763;48.730;9.136;2023-01-01T14:58:27;5.88;;;4.00;;
31112;SDS011;17763;48.730;9.136;2023-01-01T15:00:54;7.03;;;3.10;;
31112;SDS011;17763;48.730;9.136;2023-01-01T15:03:40;5.28;;;3.00;;
31112;SDS011;17763;48.730;9.136;2023-01-01T15:06:28;4.03;;;2.80;;
31112;SDS011;17763;48.730;9.136;2023-01-01T15:08:56;3.38;;;2.75;;
31112;SDS011;17763;48.730;9.136;2023-01-01T15:11:24;3.15;;;2.47;;
31112;SDS011;17763;48.730;9.136;2023-01-01T15:13:53;5.95;;;2.92;;
31112;SDS011;17763;48.730;9.136;2023-01-01T15:16:24;4.50;;;2.40;;
31112;SDS011;17763;48.730;9.136;2023-01-01T15:18:50;4.90;;;2.70;;
31112;SDS011;17763;48.730;9.136;2023-01-01T15:23:57;4.93;;;2.80;;
31112;SDS011;17763;48.730;9.136;2023-01-01T15:26:40;5.25;;;2.92;;
31112;SDS011;17763;48.730;9.136;2023-01-01T15:29:20;3.83;;;2.60;;
31112;SDS011;17763;48.730;9.136;2023-01-01T15:32:10;3.50;;;2.72;;
31112;SDS011;17763;48.730;9.136;2023-01-01T15:45:21;6.53;;;2.83;;
31112;SDS011;17763;48.730;9.136;2023-01-01T15:47:50;5.30;;;3.25;;
31112;SDS011;17763;48.730;9.136;2023-01-01T15:52:45;5.63;;;4.15;;
31112;SDS011;17763;48.730;9.136;2023-01-01T15:55:14;6.28;;;3.35;;
31112;SDS011;17763;48.730;9.136;2023-01-01T15:57:47;4.15;;;3.80;;
31112;SDS011;17763;48.730;9.136;2023-01-01T16:00:21;8.48;;;3.75;;
31112;SDS011;17763;48.730;9.136;2023-01-01T16:02:53;7.78;;;3.80;;
31112;SDS011;17763;48.730;9.136;2023-01-01T16:05:24;6.00;;;4.20;;
31112;SDS011;17763;48.730;9.136;2023-01-01T16:10:27;5.53;;;4.43;;
31112;SDS011;17763;48.730;9.136;2023-01-01T16:12:55;5.72;;;4.78;;
31112;SDS011;17763;48.730;9.136;2023-01-01T16:15:23;8.45;;;5.15;;
31112;SDS011;17763;48.730;9.136;2023-01-01T16:17:50;7.45;;;4.55;;
31112;SDS011;17763;48.730;9.136;2023-01-01T16:20:19;8.50;;;4.70;;
31112;SDS011;17763;48.730;9.136;2023-01-01T16:22:46;8.38;;;5.28;;
31112;SDS011;17763;48.730;9.136;2023-01-01T16:25:15;7.20;;;4.47;;
31112;SDS011;17763;48.730;9.136;2023-01-01T16:27:43;7.93;;;5.15;;
31112;SDS011;17763;48.730;9.136;2023-01-01T16:30:09;5.20;;;4.30;;
31112;SDS011;17763;48.730;9.136;2023-01-01T16:32:35;6.82;;;4.57;;
31112;SDS011;17763;48.730;9.136;2023-01-01T16:35:01;4.72;;;4.22;;
31112;SDS011;17763;48.730;9.136;2023-01-01T16:37:32;6.72;;;4.93;;
31112;SDS011;17763;48.730;9.136;2023-01-01T16:39:58;6.05;;;4.43;;
31112;SDS011;17763;48.730;9.136;2023-01-01T16:42:23;5.45;;;4.60;;
31112;SDS011;17763;48.730;9.136;2023-01-01T16:44:49;7.95;;;5.32;;
31112;SDS011;17763;48.730;9.136;2023-01-01T16:47:15;6.90;;;5.05;;
31112;SDS011;17763;48.730;9.136;2023-01-01T16:49:41;7.28;;;4.93;;
31112;SDS011;17763;48.730;9.136;2023-01-01T16:52:06;8.15;;;4.45;;
31112;SDS011;17763;48.730;9.136;2023-01-01T16:54:32;7.50;;;4.43;;
31112;SDS011;17763;48.730;9.136;2023-01-01T16:56:59;6.45;;;4.70;;
31112;SDS011;17763;48.730;9.136;2023-01-01T16:59:25;8.98;;;5.07;;
31112;SDS011;17763;48.730;9.136;2023-01-01T17:01:51;6.53;;;4.20;;
31112;SDS011;17763;48.730;9.136;2023-01-01T17:04:17;8.57;;;4.55;;
31112;SDS011;17763;48.730;9.136;2023-01-01T17:06:45;4.93;;;3.92;;
31112;SDS011;17763;48.730;9.136;2023-01-01T17:09:10;5.72;;;4.43;;
31112;SDS011;17763;48.730;9.136;2023-01-01T17:11:37;6.97;;;3.90;;
31112;SDS011;17763;48.730;9.136;2023-01-01T17:14:04;8.43;;;4.03;;
31112;SDS011;17763;48.730;9.136;2023-01-01T17:16:30;7.13;;;4.13;;
31112;SDS011;17763;48.730;9.136;2023-01-01T17:18:57;4.45;;;3.60;;
31112;SDS011;17763;48.730;9.136;2023-01-01T17:21:25;5.78;;;4.45;;
31112;SDS011;17763;48.730;9.136;2023-01-01T17:23:51;6.70;;;4.35;;
31112;SDS011;17763;48.730;9.136;2023-01-01T17:26:20;6.40;;;4.43;;
31112;SDS011;17763;48.730;9.136;2023-01-01T17:28:47;8.43;;;4.78;;
31112;SDS011;17763;48.730;9.136;2023-01-01T17:31:16;4.88;;;4.00;;
31112;SDS011;17763;48.730;9.136;2023-01-01T17:33:48;11.82;;;5.00;;
31112;SDS011;17763;48.730;9.136;2023-01-01T17:36:14;4.53;;;4.00;;
31112;SDS011;17763;48.730;9.136;2023-01-01T17:38:40;6.13;;;4.45;;
31112;SDS011;17763;48.730;9.136;2023-01-01T17:41:10;5.47;;;4.72;;
31112;SDS011;17763;48.730;9.136;2023-01-01T17:43:38;6.00;;;4.35;;
31112;SDS011;17763;48.730;9.136;2023-01-01T17:46:06;5.03;;;4.55;;
31112;SDS011;17763;48.730;9.136;2023-01-01T17:48:43;9.38;;;4.93;;
31112;SDS011;17763;48.730;9.136;2023-01-01T17:51:10;9.00;;;4.88;;
31112;SDS011;17763;48.730;9.136;2023-01-01T17:53:37;6.47;;;4.47;;
31112;SDS011;17763;48.730;9.136;2023-01-01T17:56:07;5.13;;;4.60;;
31112;SDS011;17763;48.730;9.136;2023-01-01T17:58:38;7.82;;;5.07;;
31112;SDS011;17763;48.730;9.136;2023-01-01T18:03:45;7.80;;;4.82;;
31112;SDS011;17763;48.730;9.136;2023-01-01T18:06:12;7.50;;;4.90;;
31112;SDS011;17763;48.730;9.136;2023-01-01T18:08:38;6.10;;;5.22;;
31112;SDS011;17763;48.730;9.136;2023-01-01T18:11:03;7.88;;;4.82;;
31112;SDS011;17763;48.730;9.136;2023-01-01T18:13:29;8.80;;;5.68;;
31112;SDS011;17763;48.730;9.136;2023-01-01T18:16:05;6.10;;;5.10;;
31112;SDS011;17763;48.730;9.136;2023-01-01T18:18:36;7.47;;;6.10;;
31112;SDS011;17763;48.730;9.136;2023-01-01T18:21:03;6.03;;;4.20;;
31112;SDS011;17763;48.730;9.136;2023-01-01T18:23:33;6.18;;;3.88;;
31112;SDS011;17763;48.730;9.136;2023-01-01T18:26:00;4.35;;;3.55;;
31112;SDS011;17763;48.730;9.136;2023-01-01T18:28:27;5.47;;;2.80;;
31112;SDS011;17763;48.730;9.136;2023-01-01T18:30:55;4.20;;;2.50;;
31112;SDS011;17763;48.730;9.136;2023-01-01T18:33:27;4.28;;;2.75;;
31112;SDS011;17763;48.730;9.136;2023-01-01T18:35:55;3.30;;;2.72;;
31112;SDS011;17763;48.730;9.136;2023-01-01T18:38:21;4.68;;;2.90;;
31112;SDS011;17763;48.730;9.136;2023-01-01T18:40:56;4.75;;;2.50;;
31112;SDS011;17763;48.730;9.136;2023-01-01T18:43:39;5.40;;;2.50;;
31112;SDS011;17763;48.730;9.136;2023-01-01T18:46:10;3.22;;;2.08;;
31112;SDS011;17763;48.730;9.136;2023-01-01T18:48:36;3.88;;;2.45;;
31112;SDS011;17763;48.730;9.136;2023-01-01T18:51:10;4.70;;;2.38;;
31112;SDS011;17763;48.730;9.136;2023-01-01T18:53:44;5.72;;;2.67;;
31112;SDS011;17763;48.730;9.136;2023-01-01T18:56:10;4.82;;;2.17;;
31112;SDS011;17763;48.730;9.136;2023-01-01T18:58:41;3.05;;;2.22;;
31112;SDS011;17763;48.730;9.136;2023-01-01T19:01:14;4.63;;;2.13;;
31112;SDS011;17763;48.730;9.136;2023-01-01T19:03:43;2.53;;;1.85;;
31112;SDS011;17763;48.730;9.136;2023-01-01T19:06:19;2.83;;;2.00;;
31112;SDS011;17763;48.730;9.136;2023-01-01T19:08:51;2.50;;;1.80;;
31112;SDS011;17763;48.730;9.136;2023-01-01T19:11:30;3.45;;;2.00;;
31112;SDS011;17763;48.730;9.136;2023-01-01T19:14:06;3.58;;;2.10;;
31112;SDS011;17763;48.730;9.136;2023-01-01T19:16:38;2.45;;;1.80;;
31112;SDS011;17763;48.730;9.136;2023-01-01T19:19:23;1.63;;;1.50;;
31112;SDS011;17763;48.730;9.136;2023-01-01T19:21:50;2.08;;;1.50;;
31112;SDS011;17763;48.730;9.136;2023-01-01T19:24:21;1.52;;;1.42;;
31112;SDS011;17763;48.730;9.136;2023-01-01T19:26:56;2.60;;;1.98;;
31112;SDS011;17763;48.730;9.136;2023-01-01T19:29:27;2.10;;;1.80;;
31112;SDS011;17763;48.730;9.136;2023-01-01T19:31:54;2.40;;;2.20;;
31112;SDS011;17763;48.730;9.136;2023-01-01T19:34:22;3.30;;;2.17;;
31112;SDS011;17763;48.730;9.136;2023-01-01T19:36:48;4.13;;;2.30;;
31112;SDS011;17763;48.730;9.136;2023-01-01T19:39:17;5.00;;;2.25;;
31112;SDS011;17763;48.730;9.136;2023-01-01T19:41:43;2.38;;;2.17;;
31112;SDS011;17763;48.730;9.136;2023-01-01T19:44:09;3.30;;;2.22;;
31112;SDS011;17763;48.730;9.136;2023-01-01T19:46:35;2.35;;;2.05;;
31112;SDS011;17763;48.730;9.136;2023-01-01T19:49:00;3.28;;;2.42;;
31112;SDS011;17763;48.730;9.136;2023-01-01T19:51:26;4.43;;;2.22;;
31112;SDS011;17763;48.730;9.136;2023-01-01T19:53:52;3.13;;;2.33;;
31112;SDS011;17763;48.730;9.136;2023-01-01T19:56:24;2.90;;;2.40;;
31112;SDS011;17763;48.730;9.136;2023-01-01T19:58:49;4.80;;;2.65;;
31112;SDS011;17763;48.730;9.136;2023-01-01T20:01:15;2.53;;;2.15;;
31112;SDS011;17763;48.730;9.136;2023-01-01T20:03:41;2.45;;;2.25;;
31112;SDS011;17763;48.730;9.136;2023-01-01T20:06:09;2.20;;;2.00;;
31112;SDS011;17763;48.730;9.136;2023-01-01T20:08:35;2.28;;;1.95;;
31112;SDS011;17763;48.730;9.136;2023-01-01T20:11:02;2.67;;;2.47;;
31112;SDS011;17763;48.730;9.136;2023-01-01T20:13:31;3.10;;;2.65;;
31112;SDS011;17763;48.730;9.136;2023-01-01T20:16:00;2.80;;;2.50;;
31112;SDS011;17763;48.730;9.136;2023-01-01T20:18:27;3.55;;;2.10;;
31112;SDS011;17763;48.730;9.136;2023-01-01T20:20:53;2.72;;;2.50;;
31112;SDS011;17763;48.730;9.136;2023-01-01T20:23:39;3.80;;;2.50;;
31112;SDS011;17763;48.730;9.136;2023-01-01T20:26:08;2.70;;;1.85;;
31112;SDS011;17763;48.730;9.136;2023-01-01T20:28:37;3.35;;;2.72;;
31112;SDS011;17763;48.730;9.136;2023-01-01T20:31:21;2.85;;;2.20;;
31112;SDS011;17763;48.730;9.136;2023-01-01T20:33:47;2.85;;;2.05;;
31112;SDS011;17763;48.730;9.136;2023-01-01T20:36:13;4.30;;;2.38;;
31112;SDS011;17763;48.730;9.136;2023-01-01T20:38:57;2.08;;;1.88;;
31112;SDS011;17763;48.730;9.136;2023-01-01T20:41:23;4.13;;;2.05;;
31112;SDS011;17763;48.730;9.136;2023-01-01T20:43:54;5.10;;;2.22;;
31112;SDS011;17763;48.730;9.136;2023-01-01T20:46:21;3.35;;;2.10;;
31112;SDS011;17763;48.730;9.136;2023-01-01T20:48:49;2.38;;;2.17;;
31112;SDS011;17763;48.730;9.136;2023-01-01T20:51:15;2.40;;;2.20;;
31112;SDS011;17763;48.730;9.136;2023-01-01T20:53:43;2.80;;;2.25;;
31112;SDS011;17763;48.730;9.136;2023-01-01T20:56:09;2.70;;;2.50;;
31112;SDS011;17763;48.730;9.136;2023-01-01T20:58:34;2.95;;;2.75;;
31112;SDS011;17763;48.730;9.136;2023-01-01T21:01:00;4.18;;;2.85;;
31112;SDS011;17763;48.730;9.136;2023-01-01T21:03:26;2.47;;;2.28;;
31112;SDS011;17763;48.730;9.136;2023-01-01T21:05:52;4.53;;;2.42;;
31112;SDS011;17763;48.730;9.136;2023-01-01T21:08:20;2.35;;;1.77;;
31112;SDS011;17763;48.730;9.136;2023-01-01T21:10:46;3.13;;;2.10;;
31112;SDS011;17763;48.730;9.136;2023-01-01T21:13:11;1.70;;;1.60;;
31112;SDS011;17763;48.730;9.136;2023-01-01T21:15:37;3.08;;;2.15;;
31112;SDS011;17763;48.730;9.136;2023-01-01T21:18:03;2.30;;;2.08;;
31112;SDS011;17763;48.730;9.136;2023-01-01T21:20:42;2.95;;;2.30;;
31112;SDS011;17763;48.730;9.136;2023-01-01T21:23:28;2.00;;;1.80;;
31112;SDS011;17763;48.730;9.136;2023-01-01T21:25:55;1.83;;;1.70;;
31112;SDS011;17763;48.730;9.136;2023-01-01T21:28:21;1.58;;;1.45;;
31112;SDS011;17763;48.730;9.136;2023-01-01T21:30:53;2.45;;;1.58;;
31112;SDS011;17763;48.730;9.136;2023-01-01T21:33:30;2.42;;;1.58;;
31112;SDS011;17763;48.730;9.136;2023-01-01T21:35:57;2.22;;;2.03;;
31112;SDS011;17763;48.730;9.136;2023-01-01T21:38:26;2.33;;;1.52;;
31112;SDS011;17763;48.730;9.136;2023-01-01T21:40:57;5.40;;;1.80;;
31112;SDS011;17763;48.730;9.136;2023-01-01T21:43:25;2.75;;;1.58;;
31112;SDS011;17763;48.730;9.136;2023-01-01T21:48:41;2.17;;;1.55;;
31112;SDS011;17763;48.730;9.136;2023-01-01T21:51:26;3.03;;;1.70;;
31112;SDS011;17763;48.730;9.136;2023-01-01T21:56:52;2.25;;;1.80;;
31112;SDS011;17763;48.730;9.136;2023-01-01T21:59:34;3.28;;;1.60;;
31112;SDS011;17763;48.730;9.136;2023-01-01T22:04:34;3.75;;;1.75;;
31112;SDS011;17763;48.730;9.136;2023-01-01T22:09:51;3.35;;;1.90;;
31112;SDS011;17763;48.730;9.136;2023-01-01T22:12:21;1.70;;;1.60;;
31112;SDS011;17763;48.730;9.136;2023-01-01T22:14:50;2.25;;;1.75;;
31112;SDS011;17763;48.730;9.136;2023-01-01T22:19:49;1.95;;;1.70;;
31112;SDS011;17763;48.730;9.136;2023-01-01T22:22:17;1.80;;;1.70;;
31112;SDS011;17763;48.730;9.136;2023-01-01T22:24:52;1.85;;;1.50;;
31112;SDS011;17763;48.730;9.136;2023-01-01T22:27:29;2.65;;;1.50;;
31112;SDS011;17763;48.730;9.136;2023-01-01T22:30:30;1.52;;;1.33;;
31112;SDS011;17763;48.730;9.136;2023-01-01T22:33:47;1.77;;;1.52;;
31112;SDS011;17763;48.730;9.136;2023-01-01T22:36:27;4.53;;;1.52;;
31112;SDS011;17763;48.730;9.136;2023-01-01T22:41:25;1.73;;;1.40;;
31112;SDS011;17763;48.730;9.136;2023-01-01T22:43:51;1.95;;;1.13;;
31112;SDS011;17763;48.730;9.136;2023-01-01T22:48:58;3.90;;;1.60;;
31112;SDS011;17763;48.730;9.136;2023-01-01T22:51:38;4.68;;;1.40;;
31112;SDS011;17763;48.730;9.136;2023-01-01T22:54:06;2.80;;;1.45;;
31112;SDS011;17763;48.730;9.136;2023-01-01T22:56:31;1.77;;;1.67;;
31112;SDS011;17763;48.730;9.136;2023-01-01T22:58:59;5.57;;;2.08;;
31112;SDS011;17763;48.730;9.136;2023-01-01T23:01:25;1.88;;;1.77;;
31112;SDS011;17763;48.730;9.136;2023-01-01T23:03:50;1.50;;;1.30;;
31112;SDS011;17763;48.730;9.136;2023-01-01T23:06:17;2.45;;;1.50;;
31112;SDS011;17763;48.730;9.136;2023-01-01T23:08:43;2.38;;;1.60;;
31112;SDS011;17763;48.730;9.136;2023-01-01T23:11:08;1.50;;;1.40;;
31112;SDS011;17763;48.730;9.136;2023-01-01T23:13:34;2.97;;;1.60;;
31112;SDS011;17763;48.730;9.136;2023-01-01T23:16:18;2.63;;;1.50;;
31112;SDS011;17763;48.730;9.136;2023-01-01T23:18:44;4.07;;;1.65;;
31112;SDS011;17763;48.730;9.136;2023-01-01T23:21:10;2.13;;;1.83;;
31112;SDS011;17763;48.730;9.136;2023-01-01T23:23:42;3.40;;;2.58;;
31112;SDS011;17763;48.730;9.136;2023-01-01T23:26:09;5.68;;;1.77;;
31112;SDS011;17763;48.730;9.136;2023-01-01T23:28:35;3.03;;;1.80;;
31112;SDS011;17763;48.730;9.136;2023-01-01T23:31:02;3.75;;;1.40;;
31112;SDS011;17763;48.730;9.136;2023-01-01T23:33:35;2.10;;;1.63;;
31112;SDS011;17763;48.730;9.136;2023-01-01T23:36:04;4.43;;;1.88;;
31112;SDS011;17763;48.730;9.136;2023-01-01T23:38:31;2.25;;;1.50;;
31112;SDS011;17763;48.730;9.136;2023-01-01T23:40:57;2.88;;;1.38;;
31112;SDS011;17763;48.730;9.136;2023-01-01T23:43:25;3.88;;;1.40;;
31112;SDS011;17763;48.730;9.136;2023-01-01T23:45:50;3.63;;;1.65;;
31112;SDS011;17763;48.730;9.136;2023-01-01T23:48:18;3.28;;;1.42;;
31112;SDS011;17763;48.730;9.136;2023-01-01T23:50:45;1.50;;;1.40;;
31112;SDS011;17763;48.730;9.136;2023-01-01T23:53:11;2.45;;;1.58;;
31112;SDS011;17763;48.730;9.136;2023-01-01T23:55:42;4.70;;;1.38;;
31112;SDS011;17763;48.730;9.136;2023-01-01T23:58:08;4.15;;;1.35;;
